Time;durP1;ratioP1;P1;durP2;ratioP2;P2;SDS_P1;SDS_P2;PMS_P1;PMS_P2;Temp;Humidity;BMP_temperature;BMP_pressure;BME280_temperature;BME280_humidity;BME280_pressure;Samples;Min_cycle;Max_cycle;Signal;HPM_P1;HPM_P2
2022/12/15 00:39:39;;;;;;;19.65;4.95;;;;;;;-6.25;69.20;98389.72;4824883;28;20134;-63
2022/12/15 00:42:25;;;;;;;18.52;5.72;;;;;;;-6.15;68.63;98383.16;4819577;28;20053;-61
2022/12/15 00:45:19;;;;;;;26.95;5.80;;;;;;;-6.37;68.29;98381.84;4793839;28;20093;-61
2022/12/15 00:48:42;;;;;;;28.40;5.47;;;;;;;-6.53;68.81;98406.09;4805065;28;20054;-62
2022/12/15 01:22:23;;;;;;;19.48;4.45;;;;;;;-6.03;67.47;98421.53;4811112;28;20104;-61
2022/12/15 01:25:13;;;;;;;20.33;4.78;;;;;;;-5.93;67.19;98414.91;4838444;28;20042;-62
2022/12/15 01:28:01;;;;;;;24.75;4.30;;;;;;;-5.97;66.28;98419.09;4831540;28;20047;-62
2022/12/15 01:31:06;;;;;;;29.42;5.13;;;;;;;-5.94;65.96;98416.63;4815794;28;20263;-62
2022/12/15 01:36:49;;;;;;;24.10;5.10;;;;;;;-5.87;66.21;98415.00;4823356;28;20058;-62
2022/12/15 01:40:43;;;;;;;16.88;4.65;;;;;;;-5.81;65.87;98417.69;4820097;28;20081;-63
2022/12/15 01:42:39;;;;;;;23.15;4.32;;;;;;;-5.72;65.71;98410.22;4781140;28;20058;-62
2022/12/15 01:45:51;;;;;;;17.00;5.10;;;;;;;-5.69;65.15;98415.38;4875644;28;20052;-62
2022/12/15 01:48:46;;;;;;;23.42;4.57;;;;;;;-5.69;65.05;98384.84;4840093;28;20326;-62
2022/12/15 01:54:39;;;;;;;24.33;5.05;;;;;;;-5.61;63.58;98402.78;4799733;28;20551;-62
2022/12/15 01:57:30;;;;;;;25.42;4.78;;;;;;;-5.47;63.48;98391.16;4797732;28;20102;-61
2022/12/15 02:00:18;;;;;;;15.20;4.30;;;;;;;-5.41;63.15;98392.97;4814812;28;20310;-61
2022/12/15 02:03:03;;;;;;;24.90;5.47;;;;;;;-5.40;64.17;98402.31;4817080;28;20449;-60
2022/12/15 02:05:58;;;;;;;34.50;13.30;;;;;;;-5.23;63.67;98390.72;4844161;28;20066;-61
2022/12/15 02:08:50;;;;;;;23.58;5.90;;;;;;;-5.15;63.11;98397.63;4820203;28;20368;-60
2022/12/15 02:12:08;;;;;;;16.30;5.25;;;;;;;-5.03;62.66;98387.63;4825659;28;20071;-61
2022/12/15 02:15:31;;;;;;;21.20;5.53;;;;;;;-4.90;62.01;98392.06;4795421;29;20136;-61
2022/12/15 02:18:28;;;;;;;41.78;15.77;;;;;;;-5.12;62.07;98372.19;4788372;29;20091;-60
2022/12/15 02:21:18;;;;;;;18.52;4.35;;;;;;;-5.34;61.57;98397.34;4797692;29;20500;-61
2022/12/15 02:24:23;;;;;;;29.38;11.55;;;;;;;-5.65;62.47;98388.28;4822448;28;20105;-60
2022/12/15 02:27:24;;;;;;;15.95;4.75;;;;;;;-5.74;61.80;98391.53;4840954;28;20054;-60
2022/12/15 02:30:36;;;;;;;25.23;5.20;;;;;;;-5.82;62.48;98393.06;4847765;28;20077;-60
2022/12/15 02:33:17;;;;;;;19.05;4.72;;;;;;;-5.64;60.96;98393.41;4856113;28;20063;-60
2022/12/15 02:39:10;;;;;;;33.42;12.70;;;;;;;-5.58;60.43;98396.91;4858662;28;20077;-60
2022/12/15 02:42:05;;;;;;;19.60;6.72;;;;;;;-5.59;60.71;98401.16;4827601;28;20050;-61
2022/12/15 02:44:55;;;;;;;18.42;6.68;;;;;;;-5.54;60.00;98398.66;4870976;28;20284;-61
2022/12/15 02:47:49;;;;;;;16.60;4.60;;;;;;;-5.67;58.61;98393.34;4855618;28;20358;-61
2022/12/15 02:51:02;;;;;;;17.92;6.47;;;;;;;-5.69;58.03;98407.75;4845389;28;20206;-61
2022/12/15 02:54:39;;;;;;;15.27;3.97;;;;;;;-5.87;57.83;98409.94;4897881;28;20048;-61
2022/12/15 02:57:40;;;;;;;17.15;3.70;;;;;;;-6.05;59.39;98409.63;4864452;28;20045;-60
2022/12/15 03:00:27;;;;;;;;;;;;;;;-6.30;60.89;98409.13;4864381;28;20052;-59
2022/12/15 03:03:22;;;;;;;14.98;4.15;;;;;;;-6.42;62.02;98352.94;4883400;28;20297;-61
2022/12/15 03:06:34;;;;;;;21.15;5.32;;;;;;;-5.95;62.01;98416.59;4870590;28;20041;-60
2022/12/15 03:09:25;;;;;;;14.80;4.05;;;;;;;-5.92;61.29;98417.47;4865213;28;20352;-60
2022/12/15 03:12:28;;;;;;;16.65;4.43;;;;;;;-6.17;60.70;98416.16;4902388;28;20067;-60
2022/12/15 03:15:28;;;;;;;11.50;4.03;;;;;;;-6.12;61.25;98424.72;4895587;28;20221;-60
2022/12/15 03:18:21;;;;;;;10.68;3.60;;;;;;;-6.21;61.37;98419.47;4885338;28;20054;-59
2022/12/15 03:21:08;;;;;;;13.70;4.30;;;;;;;-6.12;61.99;98424.72;4921777;28;20073;-60
2022/12/15 03:24:00;;;;;;;14.57;4.20;;;;;;;-6.39;61.33;98408.91;4888835;28;20041;-60
2022/12/15 03:27:01;;;;;;;13.93;4.00;;;;;;;-6.63;61.71;98427.91;4879692;28;20057;-59
2022/12/15 03:29:50;;;;;;;16.85;3.63;;;;;;;-6.79;61.09;98419.09;4864360;28;20049;-59
2022/12/15 03:32:30;;;;;;;9.10;4.07;;;;;;;-6.79;61.63;98428.34;4898366;28;20052;-60
2022/12/15 03:35:14;;;;;;;11.20;4.20;;;;;;;-6.89;60.81;98436.59;4902064;28;20059;-60
2022/12/15 03:37:55;;;;;;;20.52;4.05;;;;;;;-7.43;61.50;98397.25;4923127;28;20132;-60
2022/12/15 03:40:38;;;;;;;27.88;8.20;;;;;;;-6.95;62.25;98448.31;4857711;28;20083;-60
2022/12/15 03:43:21;;;;;;;15.55;3.65;;;;;;;-7.05;60.75;98461.63;4884989;28;20040;-60
2022/12/15 03:48:52;;;;;;;14.90;4.07;;;;;;;-7.30;61.26;98459.28;4899258;28;20071;-60
2022/12/15 03:51:42;;;;;;;12.07;3.85;;;;;;;-7.51;62.63;98445.25;4886417;28;20060;-60
2022/12/15 03:54:33;;;;;;;22.92;3.75;;;;;;;-7.49;62.66;98456.25;4842872;28;20048;-60
2022/12/15 03:57:19;;;;;;;10.27;3.40;;;;;;;-7.47;62.79;98467.31;4915173;28;20105;-60
2022/12/15 04:00:13;;;;;;;15.82;3.50;;;;;;;-7.67;62.67;98443.13;4914288;28;20217;-60
2022/12/15 04:02:56;;;;;;;13.68;3.33;;;;;;;-7.46;63.13;98471.59;4918470;28;20036;-60
2022/12/15 04:05:49;;;;;;;16.25;3.58;;;;;;;-7.32;63.76;98471.09;4902063;28;20067;-61
2022/12/15 04:08:46;;;;;;;21.65;3.28;;;;;;;-7.40;62.49;98479.34;4883915;28;20061;-61
2022/12/15 04:11:39;;;;;;;12.95;3.83;;;;;;;-7.43;63.31;98473.34;4905921;28;20392;-60
2022/12/15 04:14:27;;;;;;;17.67;4.55;;;;;;;-7.28;63.45;98477.97;4897305;28;20325;-61
2022/12/15 04:17:23;;;;;;;9.77;2.85;;;;;;;-7.29;63.20;98499.06;4853838;28;20050;-60
2022/12/15 04:20:12;;;;;;;16.42;3.78;;;;;;;-7.32;63.37;98496.47;4849750;28;20088;-60
2022/12/15 04:23:07;;;;;;;9.48;3.20;;;;;;;-7.46;63.43;98485.94;4890314;28;20255;-61
2022/12/15 05:32:32;;;;;;;13.95;3.08;;;;;;;-8.70;63.54;98555.00;4916990;28;20100;-61
2022/12/15 05:35:20;;;;;;;9.07;3.08;;;;;;;-8.82;63.41;98558.81;4878309;28;20064;-60
2022/12/15 05:41:02;;;;;;;13.02;3.17;;;;;;;-9.03;63.18;98569.09;4852901;28;20082;-60
2022/12/15 05:43:47;;;;;;;8.70;2.80;;;;;;;-9.08;63.51;98573.13;4888896;28;20062;-61
2022/12/15 05:49:13;;;;;;;11.88;3.55;;;;;;;-9.02;63.63;98586.84;4889824;28;20112;-60
2022/12/15 05:52:05;;;;;;;9.90;3.05;;;;;;;-9.12;63.06;98590.72;4857360;28;20069;-60
2022/12/15 05:54:46;;;;;;;12.82;3.80;;;;;;;-9.15;62.95;98595.69;4876455;28;20061;-61
2022/12/15 05:57:25;;;;;;;9.60;3.80;;;;;;;-9.23;63.30;98597.09;4860947;28;20048;-60
2022/12/15 06:00:06;;;;;;;12.38;2.90;;;;;;;-9.27;63.49;98597.78;4907492;28;20052;-61
2022/12/15 06:02:41;;;;;;;9.20;3.00;;;;;;;-9.38;63.55;98589.84;4890598;28;20041;-61
2022/12/15 06:05:53;;;;;;;9.23;3.33;;;;;;;-9.37;64.04;98608.38;4898453;28;20067;-60
2022/12/15 06:08:54;;;;;;;9.82;3.38;;;;;;;-9.46;63.82;98605.53;4896746;28;20049;-60
2022/12/15 06:11:39;;;;;;;8.25;3.10;;;;;;;-9.50;64.33;98616.34;4889774;28;20073;-61
2022/12/15 06:14:25;;;;;;;11.73;3.95;;;;;;;-9.53;64.94;98617.09;4876810;28;20138;-61
2022/12/15 06:17:05;;;;;;;13.68;3.60;;;;;;;-9.51;65.17;98619.66;4891900;28;20040;-60
2022/12/15 06:20:00;;;;;;;12.55;3.78;;;;;;;-9.56;64.83;98620.38;4867616;28;20046;-60
2022/12/15 06:23:14;;;;;;;;;;;;;;;;;;;;;
2022/12/15 06:28:51;;;;;;;10.63;2.95;;;;;;;-9.44;66.87;98624.16;4921640;28;19948;-61
2022/12/15 06:31:30;;;;;;;9.95;3.00;;;;;;;-9.50;66.93;98631.53;4888352;28;20045;-59
2022/12/15 06:34:17;;;;;;;15.27;3.80;;;;;;;-9.61;67.20;98654.75;4847586;28;20045;-60
2022/12/15 06:37:04;;;;;;;13.27;3.50;;;;;;;-9.59;67.95;98653.09;4901358;28;20062;-60
2022/12/15 06:40:27;;;;;;;14.18;3.13;;;;;;;-9.56;68.75;98660.84;4887430;28;20048;-60
2022/12/15 06:43:18;;;;;;;15.23;4.28;;;;;;;-9.64;68.99;98658.81;4824820;28;20059;-61
2022/12/15 06:48:56;;;;;;;11.43;3.90;;;;;;;-9.95;70.33;98651.75;4782165;28;20216;-62
2022/12/15 06:51:45;;;;;;;13.00;3.65;;;;;;;-9.75;70.90;98663.47;4837181;28;20046;-61
2022/12/15 06:54:41;;;;;;;11.73;3.90;;;;;;;-9.86;70.62;98672.28;4782611;28;20056;-61
2022/12/15 06:57:35;;;;;;;15.15;3.90;;;;;;;-9.96;70.78;98670.22;4820625;28;20063;-61
2022/12/15 07:00:31;;;;;;;15.43;3.53;;;;;;;-9.87;71.44;98675.63;4821540;28;20039;-60
2022/12/15 07:03:18;;;;;;;18.90;4.40;;;;;;;-9.93;71.11;98675.38;4826557;28;20069;-60
2022/12/15 07:09:26;;;;;;;16.83;5.40;;;;;;;-10.12;71.53;98694.88;4846798;28;20130;-61
2022/12/15 07:12:07;;;;;;;10.68;4.57;;;;;;;-10.40;71.82;98646.63;4846393;28;20117;-61
2022/12/15 07:14:54;;;;;;;10.05;3.65;;;;;;;-10.04;71.97;98703.59;4900089;28;20048;-61
2022/12/15 07:21:01;;;;;;;8.95;3.85;;;;;;;-10.06;71.59;98709.41;4885161;28;20047;-62
2022/12/15 07:23:49;;;;;;;;;;;;;;;-10.11;71.24;98706.69;4849772;28;20053;-61
2022/12/15 07:29:32;;;;;;;15.15;4.03;;;;;;;-10.10;70.56;98703.38;4815705;28;20449;-61
2022/12/15 07:32:12;;;;;;;11.93;4.90;;;;;;;-10.20;70.53;98716.44;4890691;28;20044;-62
2022/12/15 07:35:18;;;;;;;12.50;4.18;;;;;;;-10.18;70.17;98709.81;4905103;28;20065;-61
2022/12/15 07:41:13;;;;;;;17.48;3.70;;;;;;;-10.50;69.38;98686.63;4902505;28;20051;-61
2022/12/15 07:47:01;;;;;;;13.30;3.30;;;;;;;-10.53;68.92;98706.72;4857470;28;20065;-60
2022/12/15 07:49:54;;;;;;;12.25;3.70;;;;;;;-10.60;68.74;98719.88;4862202;28;20060;-61
2022/12/15 07:52:37;;;;;;;11.35;2.92;;;;;;;-10.70;69.31;98727.84;4869889;28;20103;-61
2022/12/15 07:55:18;;;;;;;10.05;3.20;;;;;;;-10.73;69.39;98727.69;4893939;28;20440;-61
2022/12/15 07:58:15;;;;;;;9.18;3.10;;;;;;;-10.88;69.65;98721.22;4865801;28;20046;-61
2022/12/15 08:01:15;;;;;;;11.93;3.20;;;;;;;-10.80;70.04;98710.59;4886923;28;20056;-62
2022/12/15 08:03:58;;;;;;;8.98;3.33;;;;;;;-10.69;70.46;98724.53;4855269;28;20045;-62
2022/12/15 08:06:53;;;;;;;13.75;4.25;;;;;;;-10.86;70.51;98696.94;4901737;28;20042;-61
2022/12/15 08:15:52;;;;;;;19.90;6.53;;;;;;;-10.63;71.90;98742.47;4836544;28;20887;-62
2022/12/15 08:18:50;;;;;;;13.65;4.65;;;;;;;-10.56;72.01;98756.19;4837285;28;20066;-62
2022/12/15 08:21:30;;;;;;;12.95;5.43;;;;;;;-10.58;71.83;98758.69;4862848;28;20066;-62
2022/12/15 08:42:25;;;;;;;11.82;3.65;;;;;;;-10.58;70.81;98773.81;4793341;29;20206;-62
2022/12/15 08:45:20;;;;;;;7.90;3.45;;;;;;;-10.58;71.18;98771.28;4792811;28;20048;-63
2022/12/15 08:48:06;;;;;;;14.25;4.13;;;;;;;-10.82;70.88;98777.78;4752785;29;20078;-63
2022/12/15 08:50:52;;;;;;;12.05;4.90;;;;;;;-10.89;71.46;98777.50;4762970;29;20044;-62
2022/12/15 08:53:43;;;;;;;11.98;4.10;;;;;;;-11.14;71.50;98742.75;4808657;28;20074;-62
2022/12/15 08:59:53;;;;;;;10.73;3.90;;;;;;;-10.65;71.84;98812.22;4799552;28;20090;-62
2022/12/15 09:02:49;;;;;;;9.25;3.55;;;;;;;-10.43;72.01;98809.81;4846512;28;20126;-62
2022/12/15 09:05:34;;;;;;;11.20;4.15;;;;;;;-10.43;71.67;98814.88;4802846;28;20057;-60
2022/12/15 09:08:31;;;;;;;9.07;3.28;;;;;;;-10.34;71.38;98819.44;4796440;28;20066;-61
2022/12/15 09:11:20;;;;;;;13.15;3.70;;;;;;;-10.34;71.36;98813.53;4856185;28;20052;-62
2022/12/15 09:14:02;;;;;;;9.27;3.40;;;;;;;-10.29;70.84;98837.31;4884689;28;20057;-61
2022/12/15 09:17:04;;;;;;;;;;;;;;;-10.20;71.12;98837.69;4856885;28;20119;-62
2022/12/15 09:20:11;;;;;;;13.77;3.58;;;;;;;-10.18;71.12;98840.25;4903477;28;19932;-62
2022/12/15 09:23:02;;;;;;;12.55;3.78;;;;;;;-9.93;71.36;98844.69;4865696;28;20058;-64
2022/12/15 09:28:41;;;;;;;13.75;4.35;;;;;;;-10.05;69.99;98843.38;4862687;28;20139;-62
2022/12/15 09:34:32;;;;;;;12.15;3.58;;;;;;;-10.27;69.76;98839.06;4891615;28;20323;-62
2022/12/15 09:37:38;;;;;;;13.60;3.83;;;;;;;-10.28;69.72;98854.19;4886245;28;20049;-63
2022/12/15 09:40:25;;;;;;;12.20;4.07;;;;;;;-10.27;69.97;98855.91;4899699;28;20063;-63
2022/12/15 09:43:32;;;;;;;6.68;3.50;;;;;;;-10.08;69.68;98862.59;4870050;28;20045;-63
2022/12/15 09:47:03;;;;;;;17.20;4.07;;;;;;;-9.95;70.21;98864.00;4892085;28;20055;-61
2022/12/15 09:50:01;;;;;;;12.25;4.22;;;;;;;-9.91;70.00;98870.88;4867910;28;20049;-64
2022/12/15 09:53:17;;;;;;;14.55;4.78;;;;;;;-10.05;69.50;98863.59;4912040;28;20055;-63
2022/12/15 09:56:36;;;;;;;14.68;4.40;;;;;;;-10.42;69.66;98814.06;4903546;28;20052;-65
2022/12/15 10:03:18;;;;;;;8.63;4.03;;;;;;;-9.86;70.29;98879.53;4886796;28;20049;-63
2022/12/15 10:06:14;;;;;;;8.98;3.47;;;;;;;-9.73;70.39;98886.84;4884637;28;20434;-62
2022/12/15 10:09:14;;;;;;;9.00;3.58;;;;;;;-9.70;70.67;98886.97;4846265;28;20056;-63
2022/12/15 10:12:26;;;;;;;14.88;4.80;;;;;;;-10.11;70.02;98832.13;4870131;28;20060;-63
2022/12/15 10:15:18;;;;;;;11.48;3.92;;;;;;;-9.92;70.27;98864.13;4809644;28;20065;-63
2022/12/15 10:18:07;;;;;;;7.47;3.20;;;;;;;-9.86;70.55;98884.56;4894537;28;20053;-64
2022/12/15 10:21:06;;;;;;;8.02;4.18;;;;;;;-9.92;70.53;98896.97;4896420;28;20086;-63
2022/12/15 10:23:45;;;;;;;10.93;3.90;;;;;;;-9.92;71.16;98894.44;4847327;28;20128;-63
2022/12/15 10:26:50;;;;;;;12.05;4.15;;;;;;;-9.86;71.29;98890.53;4883799;28;20273;-63
2022/12/15 10:30:19;;;;;;;15.27;5.43;;;;;;;-9.80;71.28;98885.72;4892881;28;20046;-63
2022/12/15 10:33:21;;;;;;;17.65;5.07;;;;;;;-9.80;71.45;98894.97;4920954;28;20167;-63
2022/12/15 10:36:06;;;;;;;15.55;4.93;;;;;;;-9.83;71.21;98915.06;4882977;28;20302;-62
2022/12/15 10:39:06;;;;;;;15.43;4.63;;;;;;;-9.88;71.44;98903.84;4879377;28;20098;-64
2022/12/15 10:49:54;;;;;;;9.95;3.33;;;;;;;-9.85;71.63;98906.53;4894373;28;20055;-63
2022/12/15 11:01:04;;;;;;;10.82;4.90;;;;;;;-10.10;71.16;98904.63;4922599;28;20081;-61
2022/12/15 11:07:18;;;;;;;42.55;17.80;;;;;;;-10.84;71.01;98807.13;4816132;28;20034;-62
2022/12/15 11:10:05;;;;;;;21.00;8.48;;;;;;;-10.31;70.92;98914.66;4829404;28;20046;-62
2022/12/15 11:13:00;;;;;;;14.90;6.25;;;;;;;-10.62;71.01;98865.34;4842875;28;20090;-62
2022/12/15 11:15:50;;;;;;;17.67;5.90;;;;;;;-10.47;70.98;98930.81;4845791;28;20055;-62
2022/12/15 11:18:49;;;;;;;17.67;5.60;;;;;;;-10.50;71.21;98931.53;4859076;28;20101;-61
2022/12/15 11:24:37;;;;;;;16.92;5.70;;;;;;;-10.53;71.04;98918.78;4823063;28;20094;-61
2022/12/15 11:27:31;;;;;;;13.82;4.43;;;;;;;-10.42;71.19;98935.25;4756260;28;20097;-62
2022/12/15 11:30:16;;;;;;;13.77;5.00;;;;;;;-10.57;71.38;98921.94;4838070;28;20050;-61
2022/12/15 11:33:06;;;;;;;14.77;5.68;;;;;;;-10.44;71.18;98939.38;4829531;28;20221;-61
2022/12/15 11:36:02;;;;;;;19.42;7.13;;;;;;;-10.74;71.31;98923.69;4849450;28;20054;-61
2022/12/15 11:38:45;;;;;;;16.42;5.63;;;;;;;-10.98;71.45;98857.84;4841989;28;20064;-61
2022/12/15 11:41:49;;;;;;;20.40;7.90;;;;;;;-10.45;71.62;98950.28;4841769;28;20065;-61
2022/12/15 11:44:43;;;;;;;136.38;47.40;;;;;;;-10.42;71.50;98952.06;4844055;28;20068;-60
2022/12/15 11:47:47;;;;;;;46.90;16.92;;;;;;;-10.76;71.39;98909.28;4879666;28;20048;-60
2022/12/15 11:54:54;;;;;;;106.32;35.60;;;;;;;-10.67;71.31;98967.75;4897547;28;20311;-62
2022/12/15 11:57:58;;;;;;;85.70;28.50;;;;;;;-10.69;71.47;98981.97;4841054;28;20056;-62
2022/12/15 12:00:52;;;;;;;172.85;54.15;;;;;;;-10.81;71.43;98976.31;4887926;28;20136;-62
2022/12/15 12:03:47;;;;;;;165.43;51.42;;;;;;;-10.95;71.38;98976.56;4894882;28;20381;-61
2022/12/15 12:06:32;;;;;;;119.57;40.70;;;;;;;-11.12;70.92;98993.38;4898722;28;20289;-61
2022/12/15 12:09:35;;;;;;;86.85;28.77;;;;;;;-11.33;71.16;98973.03;4868207;28;20069;-61
2022/12/15 12:15:31;;;;;;;31.88;11.10;;;;;;;-11.66;70.76;98994.03;4909824;28;20049;-61
2022/12/15 12:18:33;;;;;;;35.85;12.35;;;;;;;-12.16;70.97;98950.38;4858005;28;20206;-62
2022/12/15 12:21:25;;;;;;;53.20;16.65;;;;;;;-12.50;72.10;98859.66;4931220;28;20052;-61
2022/12/15 12:24:12;;;;;;;115.25;35.83;;;;;;;-11.50;72.17;98989.00;4925177;28;20044;-61
2022/12/15 12:27:08;;;;;;;224.43;75.93;;;;;;;-11.50;71.90;98991.50;4878604;28;20053;-61
2022/12/15 12:30:04;;;;;;;159.35;53.03;;;;;;;-11.62;71.04;98995.94;4862482;28;20049;-61
2022/12/15 12:32:51;;;;;;;121.10;42.53;;;;;;;-12.19;70.44;98935.97;4919807;28;20057;-62
2022/12/15 12:35:57;;;;;;;67.90;24.98;;;;;;;-11.80;70.93;98991.69;4879658;28;20048;-60
2022/12/15 12:41:53;;;;;;;17.98;7.10;;;;;;;-12.04;70.57;99005.56;4866364;28;20049;-61
2022/12/15 12:44:48;;;;;;;17.73;7.13;;;;;;;-12.21;70.77;98997.09;4857459;28;20106;-60
2022/12/15 12:47:34;;;;;;;22.77;8.38;;;;;;;-12.24;70.93;99007.88;4885056;28;20037;-60
2022/12/15 12:50:28;;;;;;;18.60;6.05;;;;;;;-12.32;70.92;99014.16;4861277;28;20053;-61
2022/12/15 12:53:24;;;;;;;17.27;5.78;;;;;;;-12.33;71.18;99007.38;4869086;28;20248;-60
2022/12/15 12:56:32;;;;;;;14.98;5.13;;;;;;;-12.46;70.65;99020.97;4865605;28;20112;-61
2022/12/15 13:03:23;;;;;;;19.88;6.38;;;;;;;-12.98;70.81;99037.34;4901187;28;20053;-61
2022/12/15 13:07:06;;;;;;;23.65;7.47;;;;;;;-13.07;71.70;99038.56;4871319;28;20045;-61
2022/12/15 13:10:19;;;;;;;19.85;7.07;;;;;;;-13.29;71.83;99035.63;4830878;28;20054;-60
2022/12/15 13:13:21;;;;;;;59.70;16.70;;;;;;;-13.13;72.92;99042.38;4761198;29;20056;-60
2022/12/15 13:16:09;;;;;;;90.65;18.73;;;;;;;-13.13;72.48;99042.38;4798013;28;20075;-61
2022/12/15 13:19:07;;;;;;;74.38;17.15;;;;;;;-13.26;72.13;99040.81;4783356;29;20071;-61
2022/12/15 13:22:03;;;;;;;37.03;13.90;;;;;;;-13.44;71.67;99049.84;4803355;28;20226;-61
2022/12/15 13:25:02;;;;;;;42.08;10.27;;;;;;;-13.57;72.49;99049.09;4793687;28;20248;-60
2022/12/15 13:27:47;;;;;;;17.75;7.03;;;;;;;-13.68;72.64;99052.63;4806019;28;20044;-61
2022/12/15 13:30:28;;;;;;;19.75;7.68;;;;;;;-13.95;72.26;99055.22;4802383;29;20058;-60
2022/12/15 13:33:20;;;;;;;23.42;7.25;;;;;;;-13.94;73.43;99041.03;4807181;28;20077;-61
2022/12/15 13:36:01;;;;;;;18.27;6.72;;;;;;;-13.78;73.50;99067.91;4808061;28;20047;-61
2022/12/15 13:38:59;;;;;;;11.23;5.60;;;;;;;-14.03;73.54;99011.19;4806370;28;20051;-61
2022/12/15 13:41:41;;;;;;;18.20;5.78;;;;;;;-13.74;72.85;99069.84;4810928;28;20044;-61
2022/12/15 13:47:37;;;;;;;7.90;3.88;;;;;;;-14.93;71.96;98913.78;4900886;28;20037;-61
2022/12/15 13:50:48;;;;;;;10.65;3.03;;;;;;;-15.09;71.84;98931.19;4814556;28;20599;-61
2022/12/15 13:53:50;;;;;;;12.82;3.72;;;;;;;-14.30;72.36;99072.25;4866034;28;20064;-61
2022/12/15 13:56:46;;;;;;;7.28;3.55;;;;;;;-14.12;72.66;99070.91;4844875;28;20100;-61
2022/12/15 13:59:48;;;;;;;6.18;3.00;;;;;;;-14.18;71.89;99070.50;4891910;28;20068;-62
2022/12/15 14:08:32;;;;;;;41.78;10.45;;;;;;;-14.32;71.57;99086.34;4897544;28;20041;-61
2022/12/15 14:11:26;;;;;;;51.67;12.77;;;;;;;-14.29;71.70;99092.44;4892108;28;20041;-60
2022/12/15 14:14:32;;;;;;;31.58;8.50;;;;;;;-14.23;71.24;99107.00;4886926;28;20062;-61
2022/12/15 14:17:23;;;;;;;21.05;6.75;;;;;;;-14.36;71.48;99106.25;4873753;28;20048;-61
2022/12/15 14:20:27;;;;;;;27.88;7.85;;;;;;;-14.41;71.18;99112.59;4864855;28;20522;-59
2022/12/15 14:23:49;;;;;;;16.65;6.45;;;;;;;-13.96;72.92;99113.72;4885269;28;20046;-60
2022/12/15 14:26:59;;;;;;;12.93;4.47;;;;;;;-14.17;72.16;99097.38;4905784;28;20057;-59
2022/12/15 14:29:46;;;;;;;18.38;5.75;;;;;;;-14.89;72.09;99045.22;4890327;28;20045;-61
2022/12/15 14:32:52;;;;;;;57.58;12.00;;;;;;;-14.53;72.80;99111.88;4862096;28;20061;-60
2022/12/15 14:39:07;;;;;;;30.20;8.90;;;;;;;-14.65;73.11;99111.97;4902690;28;20422;-60
2022/12/15 14:46:10;;;;;;;9.57;4.70;;;;;;;-15.00;72.70;99128.13;4865740;28;20053;-61
2022/12/15 14:49:47;;;;;;;13.43;3.50;;;;;;;-15.05;73.42;99113.53;4899728;28;20048;-60
2022/12/15 14:53:22;;;;;;;7.65;3.30;;;;;;;-15.13;72.93;99122.19;4824809;28;20335;-59
2022/12/15 14:56:30;;;;;;;8.70;3.20;;;;;;;-15.38;73.47;99130.56;4812863;28;20046;-61
2022/12/15 15:02:21;;;;;;;12.98;3.67;;;;;;;-15.18;74.10;99131.91;4759553;28;20047;-60
2022/12/15 15:05:08;;;;;;;10.07;2.90;;;;;;;-15.41;73.79;99107.81;4819451;28;20454;-60
2022/12/15 15:07:52;;;;;;;7.57;3.13;;;;;;;-14.90;73.00;99149.63;4817106;28;20063;-60
2022/12/15 15:13:45;;;;;;;7.90;3.50;;;;;;;-14.91;73.00;99147.88;4798846;28;20452;-60
2022/12/15 15:16:38;;;;;;;7.45;3.05;;;;;;;-14.91;72.56;99157.91;4730742;29;20222;-59
2022/12/15 15:19:31;;;;;;;8.45;3.03;;;;;;;-15.32;71.93;99113.47;4816620;28;20219;-60
2022/12/15 15:22:50;;;;;;;5.45;2.67;;;;;;;-15.24;71.79;99146.53;4800013;28;20039;-60
2022/12/15 15:25:40;;;;;;;7.60;3.00;;;;;;;-15.40;72.29;99149.63;4825898;28;20592;-59
2022/12/15 15:28:29;;;;;;;9.23;3.10;;;;;;;-15.38;72.92;99130.56;4836886;28;20064;-59
2022/12/15 15:31:29;;;;;;;7.63;3.15;;;;;;;-15.16;73.09;99142.88;4884824;28;20083;-59
2022/12/15 15:34:23;;;;;;;3.35;2.58;;;;;;;-15.36;72.95;99116.50;4908535;28;20049;-59
2022/12/15 15:37:01;;;;;;;6.43;3.00;;;;;;;-15.35;73.39;99135.78;4884803;28;20129;-60
2022/12/15 15:39:51;;;;;;;13.02;3.35;;;;;;;-15.01;74.84;99130.50;4859911;28;20264;-60
2022/12/15 15:42:33;;;;;;;10.82;3.35;;;;;;;-14.79;75.07;99117.72;4905555;28;20036;-60
2022/12/15 15:45:12;;;;;;;5.05;2.80;;;;;;;-14.68;74.19;99130.94;4894702;28;20104;-59
2022/12/15 15:47:50;;;;;;;15.07;5.88;;;;;;;-14.61;73.86;99133.09;4907745;28;20037;-59
2022/12/15 15:50:42;;;;;;;24.95;7.30;;;;;;;-15.18;73.04;99060.88;4899962;28;20068;-59
2022/12/15 15:56:26;;;;;;;28.38;9.63;;;;;;;-14.83;72.22;99136.72;4884640;28;20072;-60
2022/12/15 16:02:07;;;;;;;8.98;4.05;;;;;;;-14.83;71.53;99136.72;4890164;28;20118;-60
2022/12/15 16:04:52;;;;;;;13.80;5.60;;;;;;;-15.01;71.34;99136.38;4910631;28;20270;-60
2022/12/15 16:08:00;;;;;;;10.70;4.45;;;;;;;-14.52;73.67;99133.66;4888125;28;20057;-61
2022/12/15 16:10:44;;;;;;;42.40;13.45;;;;;;;-14.36;72.82;99136.34;4905181;28;20794;-59
2022/12/15 16:13:24;;;;;;;36.78;11.20;;;;;;;-14.60;71.39;99140.72;4869565;28;20125;-60
2022/12/15 16:16:46;;;;;;;22.83;7.45;;;;;;;-14.88;70.84;99132.16;4850673;28;20066;-60
2022/12/15 16:19:20;;;;;;;12.65;5.18;;;;;;;-14.82;71.02;99138.47;4837906;28;20304;-60
2022/12/15 16:22:06;;;;;;;10.82;3.58;;;;;;;-14.98;70.35;99143.22;4848894;28;20074;-60
2022/12/15 16:24:55;;;;;;;12.80;4.85;;;;;;;-14.85;70.90;99133.25;4848858;28;20102;-59
2022/12/15 16:27:42;;;;;;;17.73;6.10;;;;;;;-14.95;70.14;99125.88;4841917;28;20197;-57
2022/12/15 16:30:30;;;;;;;3.92;2.88;;;;;;;-15.36;69.19;99131.53;4840983;28;20038;-59
2022/12/15 16:33:17;;;;;;;9.35;3.17;;;;;;;-15.49;69.83;99134.00;4846324;28;20038;-59
2022/12/15 16:36:07;;;;;;;12.10;5.18;;;;;;;-15.70;69.71;99139.34;4769819;28;20053;-61
2022/12/15 16:39:08;;;;;;;11.13;4.80;;;;;;;-15.80;70.48;99136.94;4887094;28;20046;-59
2022/12/15 16:42:03;;;;;;;11.30;4.75;;;;;;;-15.80;70.20;99136.94;4845505;28;20042;-59
2022/12/15 16:44:49;;;;;;;5.45;3.13;;;;;;;-16.30;70.34;99136.78;4869174;28;20102;-59
2022/12/15 16:47:31;;;;;;;7.43;2.90;;;;;;;-16.47;71.75;99137.22;4876965;28;20451;-59
2022/12/15 16:50:12;;;;;;;8.95;3.50;;;;;;;-16.46;72.24;99152.34;4849382;28;20053;-58
2022/12/15 16:53:01;;;;;;;16.85;4.07;;;;;;;-16.46;72.59;99138.97;4875332;28;20076;-59
2022/12/15 16:55:56;;;;;;;9.10;3.60;;;;;;;-16.48;72.72;99145.50;4910667;28;20041;-58
2022/12/15 16:59:11;;;;;;;10.00;5.10;;;;;;;-16.37;73.39;99145.50;4885473;28;20373;-58
2022/12/15 17:02:30;;;;;;;8.30;3.97;;;;;;;-16.26;73.76;99137.91;4892230;28;20052;-58
2022/12/15 17:05:26;;;;;;;12.27;4.82;;;;;;;-16.27;73.67;99142.03;4889755;28;20090;-59
2022/12/15 17:08:23;;;;;;;5.53;2.85;;;;;;;-17.45;73.33;98982.06;4880086;28;20055;-59
2022/12/15 17:11:11;;;;;;;8.00;3.05;;;;;;;-16.56;73.98;99143.31;4892915;28;20245;-59
2022/12/15 17:14:07;;;;;;;6.32;3.15;;;;;;;-16.50;75.42;99132.00;4865248;28;20048;-60
2022/12/15 17:16:52;;;;;;;3.30;2.92;;;;;;;-16.60;75.36;99116.34;4905857;28;20045;-60
2022/12/15 17:19:52;;;;;;;;;;;;;;;;;;;;;
2022/12/15 17:22:59;;;;;;;5.35;3.20;;;;;;;-16.47;75.43;99142.22;4927020;28;20039;-60
2022/12/15 17:26:02;;;;;;;8.77;3.08;;;;;;;-16.43;75.76;99135.06;4917362;28;20060;-60
2022/12/15 17:29:29;;;;;;;10.70;3.63;;;;;;;-16.75;75.30;99121.13;4932700;28;20598;-59
2022/12/15 17:32:18;;;;;;;4.90;3.20;;;;;;;-16.37;75.40;99140.50;4914333;28;20221;-59
2022/12/15 17:34:55;;;;;;;14.40;3.28;;;;;;;-16.15;75.43;99137.00;4878596;28;20041;-60
2022/12/15 17:37:47;;;;;;;10.07;3.03;;;;;;;-15.97;74.94;99137.41;4928986;28;20040;-59
2022/12/15 17:40:29;;;;;;;7.35;2.72;;;;;;;-15.88;74.85;99138.03;4922944;28;20531;-60
2022/12/15 17:47:06;;;;;;;6.35;3.10;;;;;;;-15.74;73.95;99112.34;4927958;28;20056;-60
2022/12/15 17:50:08;;;;;;;6.57;2.60;;;;;;;-15.82;73.18;99113.47;4879297;28;20049;-60
2022/12/15 17:55:41;;;;;;;5.88;2.88;;;;;;;-15.94;72.80;99102.59;4840613;28;20042;-60
2022/12/15 17:58:33;;;;;;;8.00;3.00;;;;;;;-15.70;71.85;99119.31;4846671;28;20046;-60
2022/12/15 18:01:17;;;;;;;5.13;2.50;;;;;;;-15.65;71.40;99122.94;4841210;28;20046;-59
2022/12/15 18:04:16;;;;;;;8.57;2.78;;;;;;;-15.71;70.75;99116.69;4853825;28;25204;-62
2022/12/15 18:06:56;;;;;;;5.68;2.50;;;;;;;-15.74;70.22;99134.88;4842936;28;20058;-61
2022/12/15 18:09:46;;;;;;;5.40;2.53;;;;;;;-15.97;69.62;99122.38;4871344;28;20050;-59
2022/12/15 18:12:37;;;;;;;9.68;2.90;;;;;;;-15.88;70.04;99128.03;4849622;28;20042;-60